Terminal Aerodrome Forecast
Issued by NWS

Home | Current Version | Previous Version | Text Only | Print | Product List | Glossary On
Versions: 1 2 3 4 5 6 7 8 9 10 11 12 13
000
FTUS45 KRIW 052336
TAFCPR
TAF
KCPR 052336Z 0600/0624 03010KT 4SM -SHRA BR SCT008 OVC015
     FM060600 03010KT 4SM -SHRA BR BKN008
     FM061600 05014KT 5SM -SHRA SCT009 OVC020=

USA.gov is the U.S. government's official web portal to all federal, state and local government web resources and services.